createdAt,value
2023-01-30T00:01:17.939Z,26.50
2023-01-30T00:03:46.484Z,26.54
2023-01-30T00:06:16.506Z,26.72
2023-01-30T00:08:44.865Z,26.74
2023-01-30T00:11:14.733Z,26.94
2023-01-30T00:13:43.546Z,27.03
2023-01-30T00:16:12.390Z,27.06
2023-01-30T00:18:41.748Z,27.04
2023-01-30T00:21:11.584Z,26.94
2023-01-30T00:23:41.367Z,26.90
2023-01-30T00:26:10.827Z,27.06
2023-01-30T00:28:39.723Z,26.96
2023-01-30T00:31:08.927Z,26.96
2023-01-30T00:33:38.188Z,26.73
2023-01-30T00:36:07.671Z,26.95
2023-01-30T00:38:35.901Z,27.21
2023-01-30T00:41:06.263Z,27.25
2023-01-30T00:43:51.935Z,27.59
2023-01-30T00:46:45.789Z,27.22
2023-01-30T00:49:14.021Z,27.72
2023-01-30T00:51:42.594Z,27.53
2023-01-30T00:54:11.080Z,27.63
2023-01-30T00:56:40.984Z,27.70
2023-01-30T00:59:09.242Z,27.37
2023-01-30T01:01:38.891Z,27.54
2023-01-30T01:04:08.951Z,28.07
2023-01-30T01:06:37.521Z,28.41
2023-01-30T01:09:06.075Z,28.40
2023-01-30T01:11:34.567Z,28.73
2023-01-30T01:14:05.619Z,29.13
2023-01-30T01:16:35.240Z,29.21
2023-01-30T01:19:03.967Z,29.66
2023-01-30T01:21:32.594Z,29.86
2023-01-30T01:24:01.639Z,29.81
2023-01-30T01:26:30.269Z,29.60
2023-01-30T01:28:59.100Z,30.03
2023-01-30T01:31:29.364Z,29.82
2023-01-30T01:33:57.907Z,30.67
2023-01-30T01:36:52.057Z,32.41
2023-01-30T01:39:15.056Z,33.20
2023-01-30T01:41:42.681Z,32.54
2023-01-30T01:44:12.392Z,32.11
2023-01-30T01:46:45.453Z,31.39
2023-01-30T01:49:16.895Z,31.34
2023-01-30T01:51:50.967Z,30.94
2023-01-30T01:54:22.347Z,31.13
2023-01-30T01:56:51.251Z,31.36
2023-01-30T01:59:24.006Z,31.26
2023-01-30T02:01:55.225Z,31.64
2023-01-30T02:04:48.036Z,31.59
2023-01-30T02:07:18.540Z,31.57
2023-01-30T02:09:46.795Z,31.71
2023-01-30T02:12:16.193Z,31.59
2023-01-30T02:14:45.032Z,31.63
2023-01-30T02:17:14.869Z,31.93
2023-01-30T02:19:48.855Z,31.66
2023-01-30T02:22:43.642Z,31.75
2023-01-30T02:25:31.714Z,31.38
2023-01-30T02:28:23.870Z,31.38
2023-01-30T02:31:14.166Z,31.72
2023-01-30T02:33:50.287Z,31.70
2023-01-30T02:36:24.799Z,31.97
2023-01-30T02:38:58.935Z,31.73
2023-01-30T02:41:32.555Z,31.60
2023-01-30T02:44:06.025Z,31.53
2023-01-30T02:46:40.881Z,31.57
2023-01-30T02:49:14.678Z,31.95
2023-01-30T02:51:44.048Z,31.70
2023-01-30T02:54:14.141Z,31.62
2023-01-30T02:56:47.893Z,31.16
2023-01-30T02:59:19.009Z,31.56
2023-01-30T03:02:15.407Z,31.15
2023-01-30T03:04:58.835Z,31.21
2023-01-30T03:07:36.310Z,31.17
2023-01-30T03:10:08.948Z,31.32
2023-01-30T03:12:44.438Z,31.11
2023-01-30T03:15:16.666Z,31.33
2023-01-30T03:17:48.014Z,31.17
2023-01-30T03:20:18.263Z,30.95
2023-01-30T03:22:46.469Z,31.04
2023-01-30T03:25:19.557Z,30.93
2023-01-30T03:27:48.153Z,30.91
2023-01-30T03:30:17.216Z,31.14
2023-01-30T03:32:46.775Z,30.98
2023-01-30T03:35:17.989Z,31.00
2023-01-30T03:37:46.251Z,29.98
2023-01-30T03:40:16.390Z,31.09
2023-01-30T03:42:44.628Z,31.42
2023-01-30T03:45:13.617Z,31.35
2023-01-30T03:47:41.782Z,31.41
2023-01-30T03:50:12.628Z,31.75
2023-01-30T03:52:40.921Z,31.25
2023-01-30T03:55:10.206Z,31.28
2023-01-30T03:57:38.399Z,31.10
2023-01-30T04:00:07.915Z,31.28
2023-01-30T04:02:36.103Z,30.90
2023-01-30T04:05:04.811Z,30.80
2023-01-30T04:07:34.348Z,30.74
2023-01-30T04:10:03.036Z,30.72
2023-01-30T04:12:31.197Z,30.82
2023-01-30T04:14:59.749Z,30.96
2023-01-30T04:17:27.892Z,30.84
2023-01-30T04:19:56.414Z,31.01
2023-01-30T04:22:24.589Z,30.39
2023-01-30T04:24:54.493Z,30.41
2023-01-30T04:27:22.750Z,30.56
2023-01-30T04:29:51.161Z,30.47
2023-01-30T04:32:19.328Z,30.70
2023-01-30T04:34:47.754Z,30.77
2023-01-30T04:37:15.941Z,30.18
2023-01-30T04:39:44.360Z,30.40
2023-01-30T04:42:14.153Z,30.43
2023-01-30T04:44:42.621Z,29.99
2023-01-30T04:47:10.996Z,30.35
2023-01-30T04:49:39.483Z,30.27
2023-01-30T04:52:07.685Z,30.11
2023-01-30T04:54:36.183Z,30.11
2023-01-30T04:57:04.480Z,30.24
2023-01-30T04:59:34.556Z,30.10
2023-01-30T05:02:02.825Z,29.89
2023-01-30T05:04:31.400Z,30.70
2023-01-30T05:06:59.574Z,30.06
2023-01-30T05:09:28.091Z,30.21
2023-01-30T05:11:56.267Z,29.88
2023-01-30T05:14:24.724Z,29.66
2023-01-30T05:16:54.360Z,29.77
2023-01-30T05:19:22.972Z,29.75
2023-01-30T05:21:51.143Z,29.56
2023-01-30T05:24:19.718Z,29.37
2023-01-30T05:26:48.031Z,29.17
2023-01-30T05:29:16.507Z,29.22
2023-01-30T05:31:44.772Z,29.11
2023-01-30T05:34:14.701Z,29.18
2023-01-30T05:36:42.901Z,29.33
2023-01-30T05:39:11.391Z,29.32
2023-01-30T05:41:39.680Z,29.20
2023-01-30T05:44:08.250Z,28.93
2023-01-30T05:46:36.483Z,29.47
2023-01-30T05:49:05.266Z,28.99
2023-01-30T05:51:35.180Z,29.05
2023-01-30T05:54:03.659Z,29.09
2023-01-30T05:56:33.353Z,29.06
2023-01-30T05:59:02.963Z,29.08
2023-01-30T06:01:31.726Z,28.84
2023-01-30T06:04:00.547Z,28.58
2023-01-30T06:06:28.832Z,29.00
2023-01-30T06:08:59.068Z,28.60
2023-01-30T06:11:27.238Z,28.89
2023-01-30T06:13:55.941Z,28.82
2023-01-30T06:16:24.211Z,28.45
2023-01-30T06:18:52.858Z,28.31
2023-01-30T06:21:21.003Z,28.78
2023-01-30T06:23:49.657Z,28.45
2023-01-30T06:26:19.268Z,28.64
2023-01-30T06:28:48.471Z,28.45
2023-01-30T06:31:16.924Z,28.47
2023-01-30T06:33:45.468Z,28.46
2023-01-30T06:36:13.667Z,28.44
2023-01-30T06:38:42.331Z,28.59
2023-01-30T06:41:10.639Z,29.03
2023-01-30T06:43:40.458Z,28.71
2023-01-30T06:46:08.644Z,28.93
2023-01-30T06:48:37.088Z,28.33
2023-01-30T06:51:05.529Z,28.67
2023-01-30T06:53:34.290Z,28.37
2023-01-30T06:56:03.288Z,28.41
2023-01-30T06:58:31.804Z,28.45
2023-01-30T07:01:02.544Z,28.65
2023-01-30T07:03:31.016Z,28.24
2023-01-30T07:05:59.304Z,28.66
2023-01-30T07:08:27.949Z,28.45
2023-01-30T07:10:56.235Z,28.57
2023-01-30T07:13:24.761Z,28.34
2023-01-30T07:15:53.003Z,28.92
2023-01-30T07:18:22.863Z,28.35
2023-01-30T07:20:51.570Z,28.44
2023-01-30T07:23:20.029Z,28.39
2023-01-30T07:25:48.215Z,28.80
2023-01-30T07:28:16.698Z,28.28
2023-01-30T07:30:44.965Z,28.16
2023-01-30T07:33:13.672Z,28.43
2023-01-30T07:35:43.234Z,28.02
2023-01-30T07:38:11.714Z,28.07
2023-01-30T07:40:40.199Z,27.79
2023-01-30T07:43:10.933Z,28.02
2023-01-30T07:45:40.819Z,28.02
2023-01-30T07:48:10.038Z,28.37
2023-01-30T07:50:38.392Z,28.17
2023-01-30T07:53:10.912Z,28.13
2023-01-30T07:55:39.528Z,28.58
2023-01-30T07:58:08.237Z,28.79
2023-01-30T08:00:36.466Z,28.43
2023-01-30T08:03:05.278Z,28.14
2023-01-30T08:05:34.093Z,28.10
2023-01-30T08:08:02.596Z,28.27
2023-01-30T08:10:32.160Z,28.53
2023-01-30T08:13:00.661Z,28.19
2023-01-30T08:15:31.625Z,28.18
2023-01-30T08:17:59.936Z,27.14
2023-01-30T08:20:28.937Z,28.04
2023-01-30T08:22:57.524Z,28.32
2023-01-30T08:25:25.850Z,28.11
2023-01-30T08:27:56.207Z,27.72
2023-01-30T08:30:24.660Z,27.29
2023-01-30T08:32:53.330Z,26.73
2023-01-30T08:35:21.555Z,26.80
2023-01-30T08:37:50.276Z,26.86
2023-01-30T08:40:19.168Z,27.07
2023-01-30T08:42:47.896Z,27.70
2023-01-30T08:45:17.591Z,27.29
2023-01-30T08:47:46.161Z,27.76
2023-01-30T08:50:14.412Z,28.08
2023-01-30T08:52:42.953Z,27.94
2023-01-30T08:55:11.870Z,28.13
2023-01-30T08:57:40.895Z,28.68
2023-01-30T09:00:10.342Z,28.27
2023-01-30T09:02:40.808Z,28.17
2023-01-30T09:05:11.186Z,28.23
2023-01-30T09:07:39.781Z,28.56
2023-01-30T09:10:08.451Z,28.33
2023-01-30T09:12:36.921Z,28.41
2023-01-30T09:15:06.018Z,28.08
2023-01-30T09:17:34.653Z,28.64
2023-01-30T09:20:04.294Z,28.42
2023-01-30T09:22:32.826Z,28.39
2023-01-30T09:25:01.020Z,28.71
2023-01-30T09:27:29.677Z,28.82
2023-01-30T09:29:57.872Z,29.09
2023-01-30T09:32:26.413Z,29.20
2023-01-30T09:34:54.643Z,29.27
2023-01-30T09:37:24.654Z,29.77
2023-01-30T09:39:52.968Z,29.63
2023-01-30T09:42:45.490Z,28.80
2023-01-30T09:45:23.722Z,28.87
2023-01-30T09:48:01.770Z,29.17
2023-01-30T09:51:12.436Z,28.91
2023-01-30T09:54:01.263Z,29.12
2023-01-30T09:56:29.532Z,29.44
2023-01-30T09:59:00.027Z,30.12
2023-01-30T10:01:32.786Z,29.85
2023-01-30T10:04:11.327Z,29.40
2023-01-30T10:06:47.245Z,29.89
2023-01-30T10:09:19.768Z,30.35
2023-01-30T10:11:58.103Z,30.27
2023-01-30T10:14:45.454Z,30.78
2023-01-30T10:17:29.071Z,30.86
2023-01-30T10:20:08.142Z,31.64
2023-01-30T10:22:44.043Z,31.65
2023-01-30T10:25:22.072Z,31.95
2023-01-30T10:27:53.813Z,32.38
2023-01-30T10:30:22.948Z,32.21
2023-01-30T10:32:55.886Z,31.80
2023-01-30T10:35:27.322Z,32.42
2023-01-30T10:38:01.422Z,32.60
2023-01-30T10:40:36.905Z,32.86
2023-01-30T10:43:11.624Z,32.78
2023-01-30T10:45:44.822Z,32.89
2023-01-30T10:48:42.471Z,32.95
2023-01-30T10:51:19.976Z,32.89
2023-01-30T10:53:51.602Z,32.90
2023-01-30T10:56:24.125Z,32.90
2023-01-30T10:58:56.200Z,32.33
2023-01-30T11:01:26.960Z,32.59
2023-01-30T11:03:58.401Z,32.84
2023-01-30T11:06:27.353Z,33.13
2023-01-30T11:08:57.390Z,33.50
2023-01-30T11:11:31.707Z,32.63
2023-01-30T11:14:04.331Z,33.33
2023-01-30T11:16:33.442Z,33.21
2023-01-30T11:19:19.416Z,32.88
2023-01-30T11:21:51.641Z,33.04
2023-01-30T11:24:21.908Z,33.14
2023-01-30T11:26:53.451Z,33.21
2023-01-30T11:29:29.161Z,31.67
2023-01-30T11:31:58.118Z,32.51
2023-01-30T11:34:26.503Z,32.71
2023-01-30T11:36:55.002Z,32.96
2023-01-30T11:39:25.335Z,32.72
2023-01-30T11:42:04.754Z,32.57
2023-01-30T11:44:35.079Z,33.26
2023-01-30T11:47:08.626Z,33.43
2023-01-30T11:49:45.614Z,33.25
2023-01-30T11:52:18.732Z,33.16
2023-01-30T11:54:48.140Z,33.23
2023-01-30T11:57:19.612Z,33.47
2023-01-30T11:59:47.927Z,32.41
2023-01-30T12:02:21.211Z,33.32
2023-01-30T12:04:54.112Z,33.14
2023-01-30T12:07:24.732Z,33.18
2023-01-30T12:09:54.289Z,33.01
2023-01-30T12:12:35.391Z,33.03
2023-01-30T12:15:16.283Z,32.79
2023-01-30T12:17:48.722Z,33.45
2023-01-30T12:20:25.809Z,33.12
2023-01-30T12:23:03.019Z,33.17
2023-01-30T12:25:35.825Z,33.33
2023-01-30T12:28:13.821Z,33.06
2023-01-30T12:30:45.778Z,33.12
2023-01-30T12:36:11.278Z,33.16
2023-01-30T12:38:50.565Z,33.20
2023-01-30T12:41:29.809Z,33.49
2023-01-30T12:44:15.045Z,34.03
2023-01-30T12:46:52.551Z,34.58
2023-01-30T12:49:36.157Z,34.84
2023-01-30T12:52:18.007Z,35.28
2023-01-30T12:54:55.294Z,35.50
2023-01-30T12:57:29.990Z,35.98
2023-01-30T13:00:09.372Z,35.64
2023-01-30T13:02:59.779Z,34.64
2023-01-30T13:05:37.579Z,35.21
2023-01-30T13:08:16.203Z,35.35
2023-01-30T13:10:47.984Z,35.74
2023-01-30T13:13:21.078Z,35.82
2023-01-30T13:15:56.920Z,35.86
2023-01-30T13:18:28.184Z,35.93
2023-01-30T13:21:02.281Z,35.66
2023-01-30T13:23:40.570Z,35.00
2023-01-30T13:26:10.589Z,35.83
2023-01-30T13:28:41.164Z,35.71
2023-01-30T13:31:12.637Z,35.53
2023-01-30T13:33:43.021Z,34.43
2023-01-30T13:36:16.262Z,34.98
2023-01-30T13:38:51.438Z,34.86
2023-01-30T13:41:20.352Z,35.51
2023-01-30T13:43:51.982Z,34.71
2023-01-30T13:46:25.957Z,34.46
2023-01-30T13:49:02.442Z,34.16
2023-01-30T13:51:43.007Z,33.75
2023-01-30T13:54:20.695Z,33.92
2023-01-30T13:56:52.400Z,33.84
2023-01-30T13:59:30.302Z,33.58
2023-01-30T14:02:19.919Z,33.34
2023-01-30T14:04:50.878Z,33.54
2023-01-30T14:07:28.939Z,32.58
2023-01-30T14:10:17.962Z,32.88
2023-01-30T14:12:48.099Z,33.87
2023-01-30T14:15:34.213Z,33.03
2023-01-30T14:18:07.556Z,33.36
2023-01-30T14:20:37.435Z,33.55
2023-01-30T14:23:06.990Z,33.36
2023-01-30T14:25:45.268Z,33.43
2023-01-30T14:28:54.732Z,32.56
2023-01-30T14:31:53.600Z,32.97
2023-01-30T14:34:51.601Z,32.63
2023-01-30T14:37:48.312Z,32.75
2023-01-30T14:40:35.769Z,32.83
2023-01-30T14:43:49.690Z,33.38
2023-01-30T14:46:54.365Z,33.05
2023-01-30T14:49:38.143Z,33.73
2023-01-30T14:52:26.895Z,33.23
2023-01-30T14:54:55.656Z,34.07
2023-01-30T14:57:27.705Z,34.00
2023-01-30T15:02:51.075Z,33.49
2023-01-30T15:05:21.547Z,34.04
2023-01-30T15:07:52.835Z,32.96
2023-01-30T15:10:28.072Z,33.97
2023-01-30T15:13:24.142Z,33.79
2023-01-30T15:16:01.949Z,33.56
2023-01-30T15:18:48.184Z,33.52
2023-01-30T15:21:37.520Z,33.52
2023-01-30T15:24:26.386Z,33.55
2023-01-30T15:27:03.424Z,33.57
2023-01-30T15:30:01.631Z,33.05
2023-01-30T15:32:31.404Z,34.06
2023-01-30T15:35:02.376Z,34.05
2023-01-30T15:37:35.011Z,33.76
2023-01-30T15:40:20.633Z,33.44
2023-01-30T15:42:51.056Z,34.16
2023-01-30T15:45:29.611Z,33.47
2023-01-30T15:48:20.598Z,32.73
2023-01-30T15:50:50.263Z,33.98
2023-01-30T15:53:19.009Z,33.99
2023-01-30T15:55:48.963Z,34.18
2023-01-30T15:58:19.872Z,34.20
2023-01-30T16:00:50.513Z,34.07
2023-01-30T16:03:21.658Z,33.57
2023-01-30T16:05:50.393Z,32.37
2023-01-30T16:08:23.980Z,33.16
2023-01-30T16:10:54.235Z,33.38
2023-01-30T16:13:23.954Z,33.90
2023-01-30T16:15:56.249Z,33.66
2023-01-30T16:18:31.193Z,33.25
2023-01-30T16:21:04.448Z,33.15
2023-01-30T16:23:36.781Z,32.98
2023-01-30T16:26:09.110Z,32.86
2023-01-30T16:28:37.446Z,33.02
2023-01-30T16:31:07.528Z,33.05
2023-01-30T16:33:37.159Z,32.96
2023-01-30T16:36:07.987Z,32.46
2023-01-30T16:38:43.170Z,32.35
2023-01-30T16:41:31.080Z,31.87
2023-01-30T16:44:18.804Z,32.09
2023-01-30T16:46:53.792Z,32.34
2023-01-30T16:49:23.999Z,32.67
2023-01-30T16:52:01.308Z,31.99
2023-01-30T16:54:31.546Z,32.44
2023-01-30T16:57:02.670Z,32.15
2023-01-30T16:59:32.857Z,32.26
2023-01-30T17:02:03.996Z,32.57
2023-01-30T17:04:36.085Z,32.51
2023-01-30T17:07:06.194Z,32.49
2023-01-30T17:09:46.226Z,32.01
2023-01-30T17:12:45.398Z,31.92
2023-01-30T17:15:36.603Z,31.79
2023-01-30T17:18:05.639Z,33.00
2023-01-30T17:20:39.328Z,32.32
2023-01-30T17:23:10.911Z,32.55
2023-01-30T17:25:41.987Z,32.32
2023-01-30T17:28:11.679Z,31.12
2023-01-30T17:30:40.978Z,33.15
2023-01-30T17:33:12.119Z,33.36
2023-01-30T17:35:40.670Z,33.48
2023-01-30T17:38:10.022Z,34.13
2023-01-30T17:40:39.435Z,34.19
2023-01-30T17:43:09.627Z,34.24
2023-01-30T17:45:39.441Z,34.07
2023-01-30T17:48:08.647Z,34.36
2023-01-30T17:50:37.624Z,34.65
2023-01-30T17:53:06.449Z,34.64
2023-01-30T17:55:35.873Z,35.15
2023-01-30T17:58:05.279Z,35.11
2023-01-30T18:00:33.634Z,35.45
2023-01-30T18:03:03.832Z,35.63
2023-01-30T18:05:32.194Z,35.57
2023-01-30T18:08:02.698Z,35.64
2023-01-30T18:10:31.094Z,35.38
2023-01-30T18:12:59.763Z,35.35
2023-01-30T18:15:28.449Z,35.15
2023-01-30T18:17:57.078Z,35.22
2023-01-30T18:20:26.926Z,35.32
2023-01-30T18:22:55.605Z,35.40
2023-01-30T18:25:23.954Z,35.36
2023-01-30T18:27:52.719Z,34.85
2023-01-30T18:30:24.491Z,34.39
2023-01-30T18:32:54.109Z,34.61
2023-01-30T18:35:23.402Z,34.45
2023-01-30T18:37:53.596Z,34.26
2023-01-30T18:40:22.739Z,34.66
2023-01-30T18:42:51.497Z,34.35
2023-01-30T18:45:19.929Z,33.96
2023-01-30T18:47:48.627Z,33.92
2023-01-30T18:50:17.833Z,33.76
2023-01-30T18:52:47.513Z,33.80
2023-01-30T18:55:17.332Z,33.52
2023-01-30T18:57:45.936Z,33.45
2023-01-30T19:00:16.595Z,33.50
2023-01-30T19:02:46.395Z,33.17
2023-01-30T19:05:14.787Z,33.26
2023-01-30T19:07:43.375Z,33.02
2023-01-30T19:10:17.331Z,32.99
2023-01-30T19:13:05.271Z,32.82
2023-01-30T19:15:36.417Z,32.43
2023-01-30T19:18:05.150Z,32.59
2023-01-30T19:20:33.459Z,32.77
2023-01-30T19:23:01.930Z,32.78
2023-01-30T19:25:30.491Z,32.15
2023-01-30T19:28:00.525Z,32.19
2023-01-30T19:30:29.596Z,32.59
2023-01-30T19:32:59.323Z,32.44
2023-01-30T19:35:27.824Z,32.47
2023-01-30T19:38:00.425Z,32.14
2023-01-30T19:40:28.992Z,31.89
2023-01-30T19:43:05.747Z,31.82
2023-01-30T19:45:40.390Z,31.58
2023-01-30T19:48:10.614Z,31.74
2023-01-30T19:50:39.101Z,31.91
2023-01-30T19:53:08.151Z,32.04
2023-01-30T19:55:38.269Z,32.47
2023-01-30T19:58:07.635Z,32.58
2023-01-30T20:00:36.221Z,32.71
2023-01-30T20:03:06.240Z,32.50
2023-01-30T20:05:34.565Z,33.14
2023-01-30T20:08:03.564Z,33.14
2023-01-30T20:10:33.074Z,33.63
2023-01-30T20:13:02.363Z,33.44
2023-01-30T20:15:31.061Z,33.71
2023-01-30T20:17:59.604Z,33.64
2023-01-30T20:20:30.609Z,33.23
2023-01-30T20:23:01.116Z,33.48
2023-01-30T20:25:30.078Z,33.49
2023-01-30T20:27:58.712Z,33.46
2023-01-30T20:30:26.970Z,33.40
2023-01-30T20:32:55.895Z,33.24
2023-01-30T20:35:24.173Z,32.95
2023-01-30T20:37:54.427Z,32.56
2023-01-30T20:40:22.725Z,33.14
2023-01-30T20:42:51.608Z,33.52
2023-01-30T20:45:19.982Z,33.41
2023-01-30T20:47:48.686Z,33.39
2023-01-30T20:50:18.189Z,33.28
2023-01-30T20:52:51.578Z,33.66
2023-01-30T20:55:21.564Z,33.73
2023-01-30T20:57:50.458Z,33.96
2023-01-30T21:00:20.256Z,33.66
2023-01-30T21:02:52.343Z,33.10
2023-01-30T21:05:21.103Z,33.46
2023-01-30T21:07:49.887Z,33.51
2023-01-30T21:10:18.545Z,33.43
2023-01-30T21:12:48.372Z,33.60
2023-01-30T21:15:17.033Z,33.58
2023-01-30T21:17:47.619Z,33.80
2023-01-30T21:20:16.356Z,34.01
2023-01-30T21:22:44.858Z,33.88
2023-01-30T21:25:13.281Z,33.88
2023-01-30T21:27:41.831Z,33.99
2023-01-30T21:30:12.894Z,33.97
2023-01-30T21:32:41.439Z,34.10
2023-01-30T21:35:10.312Z,34.15
2023-01-30T21:37:56.385Z,34.09
2023-01-30T21:40:41.812Z,33.97
2023-01-30T21:43:16.633Z,33.87
2023-01-30T21:45:46.271Z,33.76
2023-01-30T21:48:14.786Z,33.91
2023-01-30T21:50:43.162Z,33.63
2023-01-30T21:53:11.653Z,33.64
2023-01-30T21:55:40.263Z,33.65
2023-01-30T21:58:08.820Z,33.62
2023-01-30T22:00:37.670Z,33.82
2023-01-30T22:03:07.669Z,33.62
2023-01-30T22:05:36.754Z,33.68
2023-01-30T22:08:06.191Z,33.40
2023-01-30T22:10:34.501Z,33.09
2023-01-30T22:13:02.951Z,32.80
2023-01-30T22:15:31.206Z,33.30
2023-01-30T22:17:59.659Z,32.96
2023-01-30T22:20:29.288Z,32.59
2023-01-30T22:22:57.795Z,32.58
2023-01-30T22:25:26.098Z,32.69
2023-01-30T22:27:54.662Z,32.42
2023-01-30T22:30:23.027Z,32.61
2023-01-30T22:32:54.916Z,32.40
2023-01-30T22:35:23.367Z,32.79
2023-01-30T22:37:53.224Z,32.75
2023-01-30T22:40:21.426Z,32.94
2023-01-30T22:42:50.197Z,32.95
2023-01-30T22:45:18.864Z,33.10
2023-01-30T22:47:47.741Z,33.23
2023-01-30T22:50:16.059Z,33.35
2023-01-30T22:52:44.725Z,33.81
2023-01-30T22:55:14.454Z,33.77
2023-01-30T22:57:43.146Z,34.36
2023-01-30T23:00:12.358Z,33.95
2023-01-30T23:02:41.009Z,34.38
2023-01-30T23:05:09.615Z,34.23
2023-01-30T23:07:38.227Z,34.14
2023-01-30T23:10:06.981Z,34.37
2023-01-30T23:12:54.663Z,34.20
2023-01-30T23:15:22.985Z,34.48
2023-01-30T23:18:09.197Z,34.65
2023-01-30T23:20:38.048Z,34.33
2023-01-30T23:23:07.224Z,34.36
2023-01-30T23:25:35.545Z,34.35
2023-01-30T23:28:06.077Z,34.17
2023-01-30T23:30:34.397Z,34.36
2023-01-30T23:33:02.968Z,34.14
2023-01-30T23:35:31.164Z,34.04
2023-01-30T23:38:19.304Z,34.34
2023-01-30T23:40:48.623Z,34.27
2023-01-30T23:43:20.090Z,33.96
2023-01-30T23:45:48.435Z,34.24
2023-01-30T23:48:17.010Z,34.17
2023-01-30T23:50:45.240Z,34.44
2023-01-30T23:53:13.773Z,34.47
2023-01-30T23:55:42.336Z,34.19
2023-01-30T23:58:10.844Z,34.47
